首页
METAR-TAF:

METAR-TAF

机场 :

Alva Regional Airport

Alva, 奧克拉荷馬州, 美国

纬度: 36-46-23N, 经度: 098-40-12W, 海拔: 449米

当前天气观测

该预报发布于38分钟前的00:10 UTC
风速17节,风向,有时为24节阵风
温度 40°C
湿度 25%
气压 1007 hPa
能見度: 16.1公里
天空无云

METAR: KAVK 160010Z AUTO 19017G24KT 10SM CLR 40/16 A2975 RMK AO2

时间: 19:48 (00:48 UTC)


TAF: 丢失

超过4000个机场的气象观测和天气预报(METAR&TAF报告)。

可查询的气象台以黄色和红色小点在地图上表示。

将鼠标移到小点上方,可查看气象台名称。

然后点击查看天气观测和预报。

如需切换地图:点击带黑十字的绿色按钮放大地图;点击带横线的绿色按钮缩小地图;或者点击绿色箭头查看邻近地区的地图。


METAR-TAF: